Tarawa, North Carolina
Current Conditions -  °F | °C
As of 4:22 PM on Monday 24 Nov 2014 (Local Time) from KNCA Reporting Station
Overcast Overcast  
Wind Chill: 71°   Ceiling: 800
Heat Index: 71°   Visibility: 7mi
Dew Point: 68°   Wind: 8mph
Humidity: 90%   Direction: 200°SSW
Pressure: 29.86"   Gusts: NA
Location:  34.7353°N, 77.3964°W
Report Text: KNCA 242122Z 20007KT 7SM BKN008 OVC020 22/20 A2986 RMK AO2 T02170200
Loading
Personal Weather Stations






























Interactive Weather Map New forecast layout! Learn more

10-Day Weather Forecast

Advertisements
Track Severe Weather on mobile